Time;durP1;ratioP1;P1;durP2;ratioP2;P2;SDS_P1;SDS_P2;PMS_P1;PMS_P2;Temp;Humidity;BMP_temperature;BMP_pressure;BME280_temperature;BME280_humidity;BME280_pressure;Samples;Min_cycle;Max_cycle;Signal;HPM_P1;HPM_P2
2022/04/05 00:01:45;;;;;;;13.38;2.60;;;;;;;;;;4954835;28;22139;-76
2022/04/05 00:04:12;;;;;;;8.85;2.38;;;;;;;;;;4985749;28;20423;-75
2022/04/05 00:06:38;;;;;;;9.75;2.58;;;;;;;;;;4988732;28;20437;-75
2022/04/05 00:09:04;;;;;;;9.90;2.30;;;;;;;;;;4969322;28;20436;-76
2022/04/05 00:11:30;;;;;;;8.63;2.00;;;;;;;;;;4977697;28;20518;-76
2022/04/05 00:13:56;;;;;;;15.73;2.47;;;;;;;;;;4968318;28;20432;-76
2022/04/05 00:16:22;;;;;;;8.45;2.00;;;;;;;;;;4969750;28;20458;-76
2022/04/05 00:18:48;;;;;;;11.73;2.65;;;;;;;;;;4988251;28;20418;-76
2022/04/05 00:21:14;;;;;;;12.93;2.40;;;;;;;;;;4988289;28;20429;-76
2022/04/05 00:23:40;;;;;;;10.85;2.08;;;;;;;;;;4956592;28;20436;-75
2022/04/05 00:26:07;;;;;;;10.00;2.30;;;;;;;;;;4979719;28;20458;-75
2022/04/05 00:28:32;;;;;;;8.02;1.90;;;7.40;99.90;;;;;;4970075;28;20954;-76
2022/04/05 00:30:58;;;;;;;8.45;2.00;;;;;;;;;;4987680;28;20427;-76
2022/04/05 00:33:25;;;;;;;9.70;2.33;;;;;;;;;;4972792;28;20432;-76
2022/04/05 00:35:51;;;;;;;10.60;2.47;;;;;;;;;;4979213;28;21016;-77
2022/04/05 00:38:18;;;;;;;8.25;2.22;;;;;;;;;;4970913;28;20424;-76
2022/04/05 00:40:44;;;;;;;11.05;2.40;;;;;;;;;;4985074;28;20513;-76
2022/04/05 00:43:10;;;;;;;8.83;2.30;;;;;;;;;;4991767;28;20491;-76
2022/04/05 00:45:36;;;;;;;6.88;2.00;;;;;;;;;;4987270;28;20483;-76
2022/04/05 00:48:04;;;;;;;9.20;2.30;;;;;;;;;;4993297;28;20402;-76
2022/04/05 00:50:32;;;;;;;9.73;1.92;;;;;;;;;;4998996;28;20780;-76
2022/04/05 00:53:02;;;;;;;7.05;1.98;;;;;;;;;;4980092;28;20428;-76
2022/04/05 00:55:28;;;;;;;11.07;2.20;;;7.10;99.90;;;;;;4982734;28;20436;-76
2022/04/05 00:57:56;;;;;;;10.23;2.60;;;;;;;;;;4988453;28;20441;-75
2022/04/05 01:00:22;;;;;;;7.27;2.20;;;;;;;;;;4978290;28;20551;-77
2022/04/05 01:02:48;;;;;;;10.40;2.38;;;;;;;;;;4973984;28;20447;-77
2022/04/05 01:05:17;;;;;;;13.25;2.20;;;;;;;;;;4978145;28;20820;-77
2022/04/05 01:07:45;;;;;;;12.65;2.50;;;;;;;;;;4986411;28;20468;-76
2022/04/05 01:10:11;;;;;;;8.85;2.45;;;7.00;99.90;;;;;;5002868;28;20429;-76
2022/04/05 01:12:37;;;;;;;12.82;2.72;;;;;;;;;;4982100;28;20431;-75
2022/04/05 01:15:04;;;;;;;11.90;2.53;;;;;;;;;;4976455;28;20445;-76
2022/04/05 01:17:30;;;;;;;11.50;2.35;;;;;;;;;;4977806;28;20436;-76
2022/04/05 01:19:56;;;;;;;11.23;2.50;;;;;;;;;;4975204;28;20428;-76
2022/04/05 01:22:22;;;;;;;12.88;2.33;;;6.80;99.90;;;;;;5010651;28;20425;-75
2022/04/05 01:24:48;;;;;;;9.98;2.40;;;;;;;;;;4966298;28;20449;-76
2022/04/05 01:27:19;;;;;;;10.88;2.47;;;;;;;;;;4959167;28;20416;-75
2022/04/05 01:29:45;;;;;;;12.43;2.60;;;;;;;;;;4983086;28;20428;-75
2022/04/05 01:32:11;;;;;;;8.65;2.45;;;;;;;;;;4969785;28;20435;-75
2022/04/05 01:34:49;;;;;;;9.68;2.50;;;;;;;;;;4988962;28;20442;-75
2022/04/05 01:37:15;;;;;;;9.35;2.40;;;;;;;;;;4972835;28;20439;-75
2022/04/05 01:39:42;;;;;;;10.05;2.20;;;;;;;;;;4985018;28;20539;-75
2022/04/05 01:42:16;;;;;;;11.52;2.40;;;;;;;;;;4973673;28;20451;-76
2022/04/05 01:44:43;;;;;;;10.55;2.30;;;;;;;;;;4973551;28;20474;-76
2022/04/05 01:47:11;;;;;;;10.00;2.30;;;;;;;;;;4972256;28;20477;-75
2022/04/05 01:49:38;;;;;;;10.00;2.67;;;;;;;;;;4997816;28;20419;-76
2022/04/05 01:52:04;;;;;;;12.90;2.22;;;;;;;;;;4968699;28;20436;-75
2022/04/05 01:54:31;;;;;;;10.20;2.40;;;;;;;;;;4972806;28;20440;-76
2022/04/05 01:56:57;;;;;;;14.20;2.72;;;;;;;;;;4970472;28;20435;-76
2022/04/05 01:59:24;;;;;;;11.10;2.75;;;;;;;;;;4986734;28;20452;-76
2022/04/05 02:01:50;;;;;;;13.70;2.60;;;;;;;;;;4985033;28;20429;-76
2022/04/05 02:04:17;;;;;;;14.10;3.10;;;;;;;;;;4986047;28;20431;-77
2022/04/05 02:06:43;;;;;;;11.00;2.90;;;;;;;;;;4977132;28;20430;-76
2022/04/05 02:09:13;;;;;;;9.70;2.90;;;;;;;;;;4992502;28;20465;-77
2022/04/05 02:11:40;;;;;;;12.57;2.90;;;;;;;;;;4942477;28;20440;-77
2022/04/05 02:14:06;;;;;;;12.75;2.83;;;;;;;;;;4972288;28;20444;-77
2022/04/05 02:16:32;;;;;;;9.95;2.80;;;;;;;;;;4997562;28;20952;-76
2022/04/05 02:18:58;;;;;;;14.82;3.28;;;;;;;;;;4983109;28;20435;-76
2022/04/05 02:21:24;;;;;;;13.40;3.15;;;6.80;99.90;;;;;;4941514;28;20427;-76
2022/04/05 02:23:50;;;;;;;12.38;3.28;;;;;;;;;;4981248;28;20433;-76
2022/04/05 02:26:17;;;;;;;13.95;3.35;;;;;;;;;;4990838;28;20437;-76
2022/04/05 02:28:43;;;;;;;16.35;4.10;;;;;;;;;;4955950;28;20442;-76
2022/04/05 02:31:09;;;;;;;15.93;4.00;;;;;;;;;;4993700;28;20500;-75
2022/04/05 02:33:36;;;;;;;10.13;3.40;;;;;;;;;;5011698;28;20447;-76
2022/04/05 02:36:03;;;;;;;16.13;3.75;;;;;;;;;;4987997;28;20441;-76
2022/04/05 02:38:29;;;;;;;14.43;3.70;;;;;;;;;;4991755;28;20479;-76
2022/04/05 02:40:57;;;;;;;13.48;3.95;;;;;;;;;;5000691;28;20448;-75
2022/04/05 02:43:24;;;;;;;14.83;4.30;;;;;;;;;;4977001;28;20456;-75
2022/04/05 02:45:50;;;;;;;13.60;4.18;;;;;;;;;;4988497;28;20846;-76
2022/04/05 02:48:16;;;;;;;13.63;3.80;;;;;;;;;;4979680;28;20410;-76
2022/04/05 02:50:43;;;;;;;17.05;4.35;;;;;;;;;;4993584;28;20437;-76
2022/04/05 02:53:09;;;;;;;13.70;4.33;;;;;;;;;;5007418;28;20481;-75
2022/04/05 02:55:34;;;;;;;17.38;4.25;;;7.70;99.90;;;;;;4959923;28;20443;-75
2022/04/05 02:58:01;;;;;;;14.40;3.88;;;;;;;;;;4982096;28;20428;-75
2022/04/05 03:00:27;;;;;;;13.48;4.13;;;;;;;;;;4976165;28;20777;-75
2022/04/05 03:02:53;;;;;;;18.67;4.72;;;;;;;;;;4960797;28;20439;-75
2022/04/05 03:05:22;;;;;;;16.13;3.92;;;;;;;;;;4950993;28;20424;-76
2022/04/05 03:07:48;;;;;;;15.35;3.97;;;;;;;;;;4996874;28;20435;-77
2022/04/05 03:10:14;;;;;;;14.75;4.40;;;;;;;;;;4963099;28;20415;-76
2022/04/05 03:12:40;;;;;;;14.63;4.07;;;;;;;;;;4991583;28;20417;-76
2022/04/05 03:15:07;;;;;;;20.15;4.28;;;;;;;;;;4986526;28;20437;-76
2022/04/05 03:17:34;;;;;;;15.45;4.03;;;;;;;;;;4995014;28;20828;-76
2022/04/05 03:20:01;;;;;;;17.60;4.47;;;;;;;;;;4975559;28;20419;-76
2022/04/05 03:22:27;;;;;;;21.08;4.47;;;;;;;;;;4983860;28;20514;-75
2022/04/05 03:24:53;;;;;;;17.95;4.13;;;;;;;;;;4961374;28;20827;-76
2022/04/05 03:27:19;;;;;;;15.60;3.80;;;;;;;;;;4965090;28;20415;-76
2022/04/05 03:29:45;;;;;;;14.68;3.65;;;;;;;;;;4959332;28;20463;-76
2022/04/05 03:32:11;;;;;;;14.30;4.17;;;;;;;;;;4960196;28;20429;-76
2022/04/05 03:34:38;;;;;;;18.15;4.07;;;;;;;;;;4977993;28;20464;-75
2022/04/05 03:37:05;;;;;;;18.20;4.23;;;;;;;;;;4985842;28;20435;-76
2022/04/05 03:39:31;;;;;;;16.95;3.92;;;;;;;;;;4984678;28;20424;-76
2022/04/05 03:41:58;;;;;;;18.85;4.30;;;7.10;99.90;;;;;;4982363;28;20440;-76
2022/04/05 03:44:24;;;;;;;14.45;3.40;;;;;;;;;;4977908;28;20435;-75
2022/04/05 03:46:51;;;;;;;14.10;4.10;;;;;;;;;;4984587;28;20427;-76
2022/04/05 03:49:17;;;;;;;15.82;3.88;;;;;;;;;;4961567;28;20452;-74
2022/04/05 03:51:43;;;;;;;17.52;4.32;;;;;;;;;;4969579;28;20434;-75
2022/04/05 03:54:09;;;;;;;16.95;4.38;;;;;;;;;;4995700;28;20948;-74
2022/04/05 03:56:35;;;;;;;18.17;4.28;;;;;;;;;;4959483;28;20798;-73
2022/04/05 03:59:02;;;;;;;18.30;3.80;;;;;;;;;;4975021;28;20798;-75
2022/04/05 04:01:28;;;;;;;16.58;4.05;;;;;;;;;;4965989;28;20430;-74
2022/04/05 04:03:54;;;;;;;16.35;4.38;;;;;;;;;;5010253;28;20797;-74
2022/04/05 04:06:20;;;;;;;17.02;3.97;;;;;;;;;;4992416;28;20860;-74
2022/04/05 04:08:46;;;;;;;20.35;4.47;;;7.10;99.90;;;;;;4965517;28;20534;-74
2022/04/05 04:11:11;;;;;;;17.77;4.47;;;7.20;99.90;;;;;;4964976;28;20927;-74
2022/04/05 04:13:37;;;;;;;17.10;4.17;;;;;;;;;;5038247;28;20450;-73
2022/04/05 04:16:04;;;;;;;15.43;4.13;;;;;;;;;;4984303;28;20930;-73
2022/04/05 04:18:30;;;;;;;19.70;4.45;;;;;;;;;;4994220;28;20417;-73
2022/04/05 04:20:56;;;;;;;15.93;4.03;;;;;;;;;;4972337;28;20426;-73
2022/04/05 04:23:22;;;;;;;16.70;3.88;;;;;;;;;;4988755;28;20435;-73
2022/04/05 04:25:49;;;;;;;18.10;4.22;;;;;;;;;;4980873;28;20881;-72
2022/04/05 04:28:15;;;;;;;16.27;4.27;;;;;;;;;;4977596;28;20478;-73
2022/04/05 04:30:41;;;;;;;20.30;4.28;;;;;;;;;;4977159;28;20426;-73
2022/04/05 04:33:08;;;;;;;15.25;3.92;;;7.50;99.90;;;;;;4994092;28;20414;-73
2022/04/05 04:35:34;;;;;;;16.27;4.45;;;;;;;;;;4974675;28;20433;-73
2022/04/05 04:38:01;;;;;;;14.80;4.40;;;;;;;;;;4965880;28;20437;-72
2022/04/05 04:40:27;;;;;;;14.85;4.28;;;;;;;;;;4981849;28;20433;-73
2022/04/05 04:42:53;;;;;;;17.88;4.30;;;;;;;;;;4993906;28;20413;-73
2022/04/05 04:45:20;;;;;;;15.02;4.30;;;;;;;;;;4991065;28;20438;-73
2022/04/05 04:47:46;;;;;;;14.10;4.28;;;;;;;;;;4960076;28;20529;-73
2022/04/05 04:50:12;;;;;;;14.30;4.00;;;;;;;;;;4964104;28;20432;-73
2022/04/05 04:52:38;;;;;;;13.63;4.28;;;;;;;;;;4972784;28;20447;-73
2022/04/05 04:55:07;;;;;;;12.88;4.22;;;;;;;;;;4977141;28;20446;-72
2022/04/05 04:57:34;;;;;;;15.70;4.57;;;;;;;;;;4990572;28;20428;-74
2022/04/05 05:00:00;;;;;;;14.52;4.82;;;;;;;;;;4957786;28;20420;-74
2022/04/05 05:02:26;;;;;;;16.75;4.60;;;;;;;;;;4988920;28;20425;-74
2022/04/05 05:04:52;;;;;;;14.55;4.68;;;;;;;;;;4975133;28;20821;-73
2022/04/05 05:07:18;;;;;;;16.97;4.50;;;;;;;;;;4983995;28;20446;-74
2022/04/05 05:09:45;;;;;;;15.50;4.45;;;;;;;;;;4997692;28;20574;-74
2022/04/05 05:12:11;;;;;;;17.58;4.35;;;;;;;;;;4974084;28;20658;-75
2022/04/05 05:14:38;;;;;;;14.90;4.90;;;;;;;;;;4974820;28;20433;-74
2022/04/05 05:17:04;;;;;;;14.83;4.43;;;;;;;;;;4992731;28;20435;-74
2022/04/05 05:19:31;;;;;;;13.90;4.15;;;;;;;;;;4971812;28;20432;-74
2022/04/05 05:21:57;;;;;;;13.30;4.03;;;;;;;;;;4964594;28;21876;-74
2022/04/05 05:24:23;;;;;;;15.50;4.35;;;;;;;;;;4974803;28;20428;-74
2022/04/05 05:26:50;;;;;;;12.18;4.18;;;;;;;;;;4987395;28;20414;-74
2022/04/05 05:29:16;;;;;;;15.35;4.07;;;;;;;;;;4991290;28;20426;-74
2022/04/05 05:31:42;;;;;;;12.85;4.22;;;;;;;;;;4969706;28;20437;-75
2022/04/05 05:34:09;;;;;;;12.27;4.07;;;;;;;;;;4996540;28;20821;-75
2022/04/05 05:36:35;;;;;;;12.75;3.70;;;;;;;;;;4967563;28;20507;-74
2022/04/05 05:39:01;;;;;;;13.68;4.22;;;;;;;;;;4964488;28;20435;-74
2022/04/05 05:41:27;;;;;;;13.48;4.03;;;;;;;;;;4974078;28;20957;-74
2022/04/05 05:43:53;;;;;;;15.37;3.90;;;;;;;;;;4973223;28;20439;-75
2022/04/05 05:46:19;;;;;;;12.65;3.88;;;;;;;;;;4972572;28;20460;-74
2022/04/05 05:48:45;;;;;;;14.68;4.15;;;;;;;;;;4981765;28;20526;-74
2022/04/05 05:51:11;;;;;;;13.13;4.53;;;;;;;;;;4965492;28;20447;-74
2022/04/05 05:53:37;;;;;;;13.15;4.22;;;;;;;;;;4972808;28;20448;-74
2022/04/05 05:56:04;;;;;;;15.40;4.00;;;;;;;;;;4960653;28;20433;-74
2022/04/05 05:58:30;;;;;;;12.10;3.95;;;;;;;;;;4980655;28;20424;-74
2022/04/05 06:00:56;;;;;;;11.85;3.53;;;;;;;;;;4976754;28;20788;-74
2022/04/05 06:03:22;;;;;;;26.88;4.72;;;;;;;;;;4991408;28;20418;-74
2022/04/05 06:05:48;;;;;;;15.45;3.70;;;;;;;;;;4975112;28;20428;-75
2022/04/05 06:08:14;;;;;;;13.88;3.60;;;;;;;;;;4969467;28;20519;-75
2022/04/05 06:10:41;;;;;;;11.93;3.60;;;;;;;;;;4998897;28;20425;-76
2022/04/05 06:13:08;;;;;;;12.23;3.80;;;;;;;;;;4980416;28;20547;-75
2022/04/05 06:15:34;;;;;;;12.75;3.67;;;;;;;;;;4960059;28;20440;-76
2022/04/05 06:18:00;;;;;;;12.55;3.72;;;;;;;;;;4981003;28;20418;-75
2022/04/05 06:20:28;;;;;;;14.57;3.67;;;;;;;;;;4983474;28;20423;-76
2022/04/05 06:22:58;;;;;;;13.98;3.35;;;;;;;;;;4966350;28;20464;-75
2022/04/05 06:25:29;;;;;;;10.75;3.20;;;;;;;;;;4976165;28;20440;-76
2022/04/05 06:28:01;;;;;;;11.77;3.60;;;;;;;;;;4983895;28;20428;-76
2022/04/05 06:30:27;;;;;;;12.63;3.83;;;;;;;;;;4946040;28;20912;-76
2022/04/05 06:33:04;;;;;;;13.23;3.50;;;;;;;;;;4965907;28;20570;-76
2022/04/05 06:35:30;;;;;;;11.32;4.00;;;;;;;;;;4991384;28;20562;-76
2022/04/05 06:37:56;;;;;;;12.55;3.80;;;;;;;;;;4987340;28;20430;-76
2022/04/05 06:40:22;;;;;;;13.13;4.25;;;;;;;;;;4990204;28;20435;-76
2022/04/05 06:42:48;;;;;;;14.70;3.70;;;;;;;;;;4970420;28;20566;-76
2022/04/05 06:45:17;;;;;;;12.65;3.55;;;;;;;;;;4996475;28;20492;-76
2022/04/05 06:47:43;;;;;;;11.48;3.78;;;;;;;;;;4995950;28;20436;-75
2022/04/05 06:50:10;;;;;;;13.18;4.10;;;;;;;;;;5029058;28;20458;-76
2022/04/05 06:52:37;;;;;;;11.95;3.72;;;;;;;;;;4979458;28;20443;-76
2022/04/05 06:55:04;;;;;;;13.50;3.73;;;;;;;;;;4959660;28;20443;-76
2022/04/05 06:57:30;;;;;;;15.35;3.72;;;;;;;;;;4992057;28;20441;-76
2022/04/05 06:59:56;;;;;;;12.35;3.80;;;;;;;;;;4978773;28;21054;-76
2022/04/05 07:02:23;;;;;;;11.50;3.90;;;;;;;;;;4987714;28;20432;-75
2022/04/05 07:04:49;;;;;;;9.40;3.38;;;;;;;;;;4957440;28;20531;-75
2022/04/05 07:07:15;;;;;;;10.38;3.53;;;;;;;;;;4976486;28;20420;-75
2022/04/05 07:09:41;;;;;;;10.02;3.78;;;;;;;;;;4977901;28;20420;-75
2022/04/05 07:12:07;;;;;;;12.07;4.03;;;;;;;;;;4969838;28;20434;-75
2022/04/05 07:14:34;;;;;;;9.73;3.58;;;;;;;;;;4985798;28;20489;-75
2022/04/05 07:17:00;;;;;;;8.52;3.13;;;;;;;;;;4986990;28;20713;-75
2022/04/05 07:19:26;;;;;;;13.60;3.80;;;;;;;;;;4997460;28;20432;-76
2022/04/05 07:21:52;;;;;;;12.45;3.35;;;;;;;;;;4967244;28;20439;-75
2022/04/05 07:24:18;;;;;;;12.48;3.40;;;;;;;;;;4995474;28;20410;-75
2022/04/05 07:26:45;;;;;;;8.10;2.92;;;;;;;;;;4979824;28;20428;-75
2022/04/05 07:29:11;;;;;;;8.65;2.60;;;8.10;99.90;;;;;;4998124;28;20432;-74
2022/04/05 07:31:37;;;;;;;9.60;3.15;;;;;;;;;;4976315;28;20933;-74
2022/04/05 07:34:03;;;;;;;8.43;2.67;;;;;;;;;;4986879;28;20451;-75
2022/04/05 07:36:30;;;;;;;9.70;3.00;;;;;;;;;;4985464;28;20426;-74
2022/04/05 07:38:56;;;;;;;10.15;2.70;;;8.10;99.90;;;;;;4976803;28;20434;-74
2022/04/05 07:41:22;;;;;;;10.57;2.83;;;;;;;;;;4991126;28;20440;-74
2022/04/05 07:43:48;;;;;;;8.87;2.70;;;;;;;;;;4984627;28;20795;-74
2022/04/05 07:46:14;;;;;;;9.52;2.78;;;;;;;;;;4989931;28;20442;-75
2022/04/05 07:48:40;;;;;;;7.30;2.40;;;;;;;;;;4966094;28;20424;-75
2022/04/05 07:51:07;;;;;;;9.95;2.50;;;;;;;;;;4991663;28;20444;-75
2022/04/05 07:53:33;;;;;;;6.03;2.40;;;;;;;;;;4976040;28;20580;-74
2022/04/05 07:55:59;;;;;;;10.60;2.60;;;;;;;;;;4977875;28;20442;-74
2022/04/05 07:58:25;;;;;;;9.07;2.75;;;7.70;99.90;;;;;;4969382;28;20420;-74
2022/04/05 08:00:52;;;;;;;11.13;2.80;;;;;;;;;;4998949;28;20421;-75
2022/04/05 08:03:18;;;;;;;8.85;2.50;;;;;;;;;;4988750;28;20498;-75
2022/04/05 08:05:44;;;;;;;10.43;2.70;;;;;;;;;;4975197;28;20439;-74
2022/04/05 08:08:11;;;;;;;11.40;3.20;;;;;;;;;;4991536;28;20433;-75
2022/04/05 08:10:39;;;;;;;11.25;2.78;;;;;;;;;;4967440;28;20420;-75
2022/04/05 08:13:06;;;;;;;8.40;2.78;;;;;;;;;;4988226;28;20432;-75
2022/04/05 08:15:32;;;;;;;6.93;2.40;;;;;;;;;;5003539;28;20443;-74
2022/04/05 08:17:58;;;;;;;8.68;2.58;;;;;;;;;;4967003;28;20432;-75
2022/04/05 08:20:24;;;;;;;7.35;2.40;;;;;;;;;;4952303;28;20439;-75
2022/04/05 08:22:50;;;;;;;7.95;2.50;;;8.40;99.90;;;;;;4988697;28;20467;-75
2022/04/05 08:25:17;;;;;;;8.07;2.37;;;;;;;;;;4983765;28;20431;-76
2022/04/05 08:27:44;;;;;;;9.00;2.60;;;;;;;;;;4958593;28;20445;-74
2022/04/05 08:30:15;;;;;;;5.70;1.92;;;;;;;;;;4974010;28;21108;-73
2022/04/05 08:32:42;;;;;;;6.72;2.13;;;;;;;;;;4977955;28;21091;-75
2022/04/05 08:35:09;;;;;;;6.78;2.33;;;;;;;;;;4973380;28;20557;-77
2022/04/05 08:37:35;;;;;;;6.78;2.40;;;;;;;;;;4990243;28;20844;-76
2022/04/05 08:40:06;;;;;;;7.20;2.00;;;;;;;;;;4980971;28;20492;-76
2022/04/05 08:42:36;;;;;;;5.93;2.10;;;;;;;;;;4960029;28;20883;-75
2022/04/05 08:45:04;;;;;;;4.05;1.70;;;;;;;;;;4992012;28;20476;-74
2022/04/05 08:47:30;;;;;;;4.07;1.45;;;;;;;;;;4968434;28;20496;-74
2022/04/05 08:49:57;;;;;;;6.90;2.25;;;;;;;;;;4974683;28;20424;-76
2022/04/05 08:52:23;;;;;;;7.22;2.75;;;;;;;;;;4957902;28;20444;-76
2022/04/05 08:54:50;;;;;;;5.93;1.50;;;;;;;;;;4978525;28;20433;-78
2022/04/05 08:57:16;;;;;;;3.38;1.80;;;;;;;;;;5045457;28;20443;-77
2022/04/05 08:59:42;;;;;;;8.40;2.30;;;;;;;;;;4971435;28;20474;-77
2022/04/05 09:02:09;;;;;;;5.40;2.20;;;;;;;;;;4982293;28;20659;-76
2022/04/05 09:04:39;;;;;;;5.38;1.95;;;;;;;;;;4975522;28;20427;-76
2022/04/05 09:07:21;;;;;;;5.22;1.77;;;;;;;;;;4955033;28;20460;-77
2022/04/05 09:10:06;;;;;;;6.63;1.95;;;;;;;;;;4975709;28;20512;-77
2022/04/05 09:12:40;;;;;;;4.13;1.80;;;;;;;;;;4958950;28;20435;-78
2022/04/05 09:15:10;;;;;;;5.18;1.70;;;;;;;;;;4959394;28;21225;-77
2022/04/05 09:17:40;;;;;;;6.53;2.47;;;;;;;;;;4992896;28;20473;-76
2022/04/05 09:20:10;;;;;;;6.28;2.45;;;;;;;;;;4986017;28;20503;-77
2022/04/05 09:22:36;;;;;;;8.35;2.30;;;;;;;;;;4991818;28;20415;-78
2022/04/05 09:25:10;;;;;;;6.25;1.98;;;;;;;;;;4979126;28;20427;-76
2022/04/05 09:27:55;;;;;;;7.63;1.92;;;;;;;;;;4962468;28;20446;-78
2022/04/05 09:30:27;;;;;;;6.57;2.13;;;;;;;;;;4960433;28;20442;-80
2022/04/05 09:32:54;;;;;;;5.93;2.10;;;;;;;;;;4987780;28;21234;-77
2022/04/05 09:35:21;;;;;;;5.72;3.28;;;;;;;;;;4986386;28;20496;-78
2022/04/05 09:37:48;;;;;;;9.13;2.70;;;;;;;;;;4980736;28;20419;-78
2022/04/05 09:40:20;;;;;;;7.47;2.65;;;;;;;;;;4941848;28;20455;-78
2022/04/05 09:43:07;;;;;;;7.20;2.92;;;;;;;;;;4970718;28;20765;-78
2022/04/05 09:45:47;;;;;;;6.40;2.88;;;;;;;;;;4988683;28;20473;-78
2022/04/05 09:48:15;;;;;;;6.80;3.10;;;;;;;;;;4986563;28;20438;-78
2022/04/05 09:51:10;;;;;;;4.23;2.37;;;;;;;;;;4985891;28;20571;-82
2022/04/05 09:53:39;;;;;;;4.60;2.20;;;;;;;;;;4986402;28;20519;-76
2022/04/05 09:56:09;;;;;;;4.82;2.20;;;;;;;;;;4973562;28;20531;-77
2022/04/05 09:58:35;;;;;;;4.55;2.03;;;;;;;;;;5004577;28;20438;-78
2022/04/05 10:01:07;;;;;;;4.88;2.40;;;;;;;;;;4969016;28;20428;-77
2022/04/05 10:03:35;;;;;;;5.78;2.47;;;;;;;;;;4986999;28;20836;-76
2022/04/05 10:06:02;;;;;;;4.18;1.80;;;;;;;;;;4993675;28;20414;-77
2022/04/05 10:08:29;;;;;;;3.40;2.00;;;;;;;;;;4978311;28;20431;-76
2022/04/05 10:10:56;;;;;;;4.18;2.00;;;;;;;;;;4973239;28;20428;-80
2022/04/05 10:13:22;;;;;;;4.93;2.20;;;;;;;;;;4959940;28;20509;-77
2022/04/05 10:15:48;;;;;;;5.80;3.00;;;;;;;;;;4967083;28;20504;-77
2022/04/05 10:18:21;;;;;;;9.95;2.60;;;;;;;;;;4957640;28;20463;-77
2022/04/05 10:20:53;;;;;;;3.08;1.88;;;;;;;;;;4972931;28;20492;-77
2022/04/05 10:23:20;;;;;;;3.45;1.70;;;;;;;;;;4972089;28;20441;-77
2022/04/05 10:25:51;;;;;;;3.40;2.05;;;;;;;;;;5018496;28;20410;-78
2022/04/05 10:28:19;;;;;;;2.80;1.80;;;;;;;;;;4962259;28;20472;-78
2022/04/05 10:30:53;;;;;;;2.80;1.55;;;9.90;99.90;;;;;;4976115;28;20427;-78
2022/04/05 10:33:31;;;;;;;3.00;1.60;;;;;;;;;;4994463;28;20431;-77
2022/04/05 10:36:00;;;;;;;3.08;1.65;;;;;;;;;;4975904;28;20428;-77
2022/04/05 10:38:27;;;;;;;3.42;2.20;;;9.90;99.90;;;;;;4975272;28;20476;-78
2022/04/05 10:41:12;;;;;;;2.90;2.08;;;;;;;;;;4966567;28;20461;-77
2022/04/05 10:43:41;;;;;;;2.97;2.20;;;;;;;;;;4997694;28;20423;-78
2022/04/05 10:46:07;;;;;;;3.67;2.10;;;;;;;;;;4960868;28;21039;-76
2022/04/05 10:48:34;;;;;;;3.38;2.20;;;;;;;;;;4976544;28;20407;-78
2022/04/05 10:51:03;;;;;;;2.92;2.17;;;;;;;;;;4960090;28;20804;-77
2022/04/05 10:53:36;;;;;;;3.35;2.20;;;;;;;;;;4974852;28;20442;-77
2022/04/05 10:56:02;;;;;;;3.35;2.00;;;;;;;;;;4963878;28;20440;-77
2022/04/05 10:58:29;;;;;;;3.67;2.40;;;;;;;;;;4965055;28;20470;-77
2022/04/05 11:01:14;;;;;;;3.80;2.25;;;;;;;;;;4978913;28;20944;-76
2022/04/05 11:03:40;;;;;;;3.40;2.30;;;;;;;;;;4986260;28;20436;-77
2022/04/05 11:06:07;;;;;;;3.80;2.65;;;;;;;;;;4976758;28;20773;-76
2022/04/05 11:08:33;;;;;;;3.38;2.20;;;;;;;;;;4991370;28;20754;-75
2022/04/05 11:11:00;;;;;;;2.63;1.90;;;;;;;;;;4998705;28;20436;-79
2022/04/05 11:13:31;;;;;;;3.70;2.10;;;;;;;;;;4968797;28;20422;-77
2022/04/05 11:15:58;;;;;;;3.08;2.05;;;;;;;;;;4988144;28;20441;-78
2022/04/05 11:18:25;;;;;;;2.50;1.75;;;;;;;;;;4978317;28;20436;-77
2022/04/05 11:20:52;;;;;;;3.23;2.07;;;;;;;;;;4979060;28;21092;-77
2022/04/05 11:23:19;;;;;;;2.67;2.00;;;;;;;;;;4978481;28;20475;-78
2022/04/05 11:25:46;;;;;;;3.15;2.05;;;;;;;;;;4985620;28;20418;-78
2022/04/05 11:28:14;;;;;;;3.47;2.20;;;;;;;;;;4995375;28;20459;-78
2022/04/05 11:30:45;;;;;;;3.08;2.05;;;;;;;;;;4967595;28;20433;-77
2022/04/05 11:33:19;;;;;;;3.27;2.20;;;;;;;;;;4959420;28;20778;-78
2022/04/05 11:35:47;;;;;;;2.77;2.00;;;;;;;;;;4958634;28;20518;-78
2022/04/05 11:38:19;;;;;;;2.88;2.10;;;;;;;;;;4970959;28;20438;-78
2022/04/05 11:40:46;;;;;;;3.45;2.40;;;;;;;;;;4995138;28;20760;-77
2022/04/05 11:43:18;;;;;;;3.40;2.30;;;;;;;;;;4998133;28;20412;-78
2022/04/05 11:45:47;;;;;;;3.40;2.30;;;;;;;;;;4990566;28;20430;-78
2022/04/05 11:48:18;;;;;;;6.60;3.00;;;11.10;99.90;;;;;;4978138;28;20514;-77
2022/04/05 11:50:44;;;;;;;3.22;2.45;;;;;;;;;;4960680;28;20440;-76
2022/04/05 11:53:20;;;;;;;4.22;2.80;;;;;;;;;;4976566;28;20432;-77
2022/04/05 11:56:02;;;;;;;4.20;2.80;;;;;;;;;;4959198;28;20445;-77
2022/04/05 11:58:30;;;;;;;4.18;2.80;;;;;;;;;;4959680;28;20413;-77
2022/04/05 12:00:57;;;;;;;3.45;2.60;;;;;;;;;;4974492;28;20438;-77
2022/04/05 12:03:23;;;;;;;3.78;2.80;;;;;;;;;;4984163;28;20429;-77
2022/04/05 12:05:49;;;;;;;4.70;3.40;;;;;;;;;;4979935;28;20430;-78
2022/04/05 12:08:16;;;;;;;4.32;3.38;;;;;;;;;;4993318;28;20420;-78
2022/04/05 12:10:42;;;;;;;4.85;3.30;;;;;;;;;;4981669;28;20409;-78
2022/04/05 12:13:09;;;;;;;5.18;3.65;;;;;;;;;;4981623;28;20453;-78
2022/04/05 12:15:36;;;;;;;5.72;4.15;;;;;;;;;;4978409;28;20469;-78
2022/04/05 12:18:22;;;;;;;6.53;4.43;;;;;;;;;;4977318;28;20510;-78
2022/04/05 12:20:58;;;;;;;6.07;4.25;;;;;;;;;;4978229;28;20407;-78
2022/04/05 12:23:30;;;;;;;6.20;4.28;;;11.30;99.90;;;;;;4966521;28;20450;-77
2022/04/05 12:26:09;;;;;;;6.63;4.32;;;11.30;99.90;;;;;;4965107;28;20422;-78
2022/04/05 12:28:45;;;;;;;8.13;4.60;;;;;;;;;;4991133;28;20443;-78
2022/04/05 12:31:16;;;;;;;7.25;4.78;;;;;;;;;;4997925;28;20421;-78
2022/04/05 12:33:53;;;;;;;9.88;5.15;;;;;;;;;;4968723;28;20467;-78
2022/04/05 12:36:19;;;;;;;7.20;4.57;;;;;;;;;;4999004;28;20450;-79
2022/04/05 12:38:45;;;;;;;8.40;4.80;;;;;;;;;;4971836;28;20418;-79
2022/04/05 12:41:20;;;;;;;8.57;4.63;;;11.40;99.90;;;;;;4961327;28;20545;-79
2022/04/05 12:44:02;;;;;;;7.53;5.22;;;;;;;;;;4970099;28;20527;-79
2022/04/05 12:46:35;;;;;;;8.63;5.65;;;;;;;;;;4974046;28;20420;-79
2022/04/05 12:49:14;;;;;;;8.75;5.82;;;;;;;;;;4986449;28;20434;-79
2022/04/05 12:51:41;;;;;;;10.90;5.68;;;;;;;;;;4977437;28;20863;-79
2022/04/05 12:54:23;;;;;;;10.02;6.13;;;;;;;;;;4962424;28;20470;-79
2022/04/05 12:56:49;;;;;;;10.05;5.57;;;;;;;;;;4980482;28;20426;-77
2022/04/05 12:59:24;;;;;;;10.45;5.50;;;;;;;;;;4974612;28;20436;-76
2022/04/05 13:01:54;;;;;;;13.63;6.72;;;;;;;;;;4960926;28;20419;-76
2022/04/05 13:04:22;;;;;;;12.68;7.05;;;;;;;;;;4994234;28;20780;-76
2022/04/05 13:06:53;;;;;;;12.43;7.35;;;10.10;99.90;;;;;;4997386;28;20407;-75
2022/04/05 13:09:26;;;;;;;13.80;7.57;;;;;;;;;;4982327;28;20542;-77
2022/04/05 13:12:15;;;;;;;15.57;7.60;;;;;;;;;;4972311;28;20983;-76
2022/04/05 13:14:41;;;;;;;15.52;7.75;;;;;;;;;;4980535;28;20451;-76
2022/04/05 13:17:08;;;;;;;19.07;9.30;;;;;;;;;;4988352;28;20414;-76
2022/04/05 13:19:35;;;;;;;18.85;9.02;;;;;;;;;;4976427;28;20831;-76
2022/04/05 13:22:01;;;;;;;21.55;9.57;;;;;;;;;;4993405;28;20470;-76
2022/04/05 13:24:41;;;;;;;18.00;9.40;;;;;;;;;;4985501;28;20455;-76
2022/04/05 13:27:08;;;;;;;16.13;8.00;;;;;;;;;;4985817;28;20421;-77
2022/04/05 13:29:34;;;;;;;18.27;8.80;;;;;;;;;;4992636;28;20476;-77
2022/04/05 13:32:02;;;;;;;23.87;9.70;;;;;;;;;;4989487;28;20485;-76
2022/04/05 13:34:29;;;;;;;21.17;10.27;;;;;;;;;;4994674;28;20435;-76
2022/04/05 13:36:55;;;;;;;24.00;10.60;;;;;;;;;;4978144;28;20426;-76
2022/04/05 13:39:22;;;;;;;24.05;11.00;;;;;;;;;;4961060;28;20426;-75
2022/04/05 13:41:48;;;;;;;22.85;10.27;;;;;;;;;;4985021;28;20427;-76
2022/04/05 13:44:14;;;;;;;24.25;10.60;;;;;;;;;;4980345;28;20439;-75
2022/04/05 13:46:41;;;;;;;21.95;10.30;;;;;;;;;;4991716;28;20955;-74
2022/04/05 13:49:09;;;;;;;23.55;10.68;;;;;;;;;;4988088;28;20684;-77
2022/04/05 13:51:35;;;;;;;21.58;10.40;;;;;;;;;;4957768;28;20424;-76
2022/04/05 13:54:02;;;;;;;25.92;11.77;;;;;;;;;;4958035;28;20436;-77
2022/04/05 13:56:28;;;;;;;25.67;11.50;;;;;;;;;;4991878;28;20426;-78
2022/04/05 13:58:56;;;;;;;25.10;11.50;;;;;;;;;;4978058;28;20433;-77
2022/04/05 14:01:23;;;;;;;23.65;11.32;;;;;;;;;;4995207;28;20480;-76
2022/04/05 14:03:50;;;;;;;23.30;11.27;;;;;;;;;;5012650;28;20852;-76
2022/04/05 14:06:16;;;;;;;25.38;11.13;;;;;;;;;;4979903;28;20435;-77
2022/04/05 14:08:43;;;;;;;24.55;11.27;;;;;;;;;;4977921;28;20835;-76
2022/04/05 14:11:09;;;;;;;22.08;10.98;;;;;;;;;;4991925;28;20438;-77
2022/04/05 14:13:36;;;;;;;22.77;10.70;;;;;;;;;;4995868;28;20436;-77
2022/04/05 14:16:02;;;;;;;22.83;11.05;;;;;;;;;;4979374;28;20817;-76
2022/04/05 14:18:29;;;;;;;25.17;10.93;;;;;;;;;;4977068;28;20418;-75
2022/04/05 14:20:55;;;;;;;23.75;11.40;;;;;;;;;;4963020;28;20423;-77
2022/04/05 14:23:21;;;;;;;24.40;11.32;;;10.30;99.90;;;;;;4996439;28;20436;-76
2022/04/05 14:25:47;;;;;;;21.80;11.23;;;;;;;;;;4972174;28;20478;-76
2022/04/05 14:28:13;;;;;;;26.65;11.15;;;;;;;;;;4995124;28;20580;-76
2022/04/05 14:30:40;;;;;;;21.35;10.85;;;;;;;;;;4995881;28;20437;-77